Time;durP1;ratioP1;P1;durP2;ratioP2;P2;SDS_P1;SDS_P2;PMS_P1;PMS_P2;Temp;Humidity;BMP_temperature;BMP_pressure;BME280_temperature;BME280_humidity;BME280_pressure;Samples;Min_cycle;Max_cycle;Signal;HPM_P1;HPM_P2
2021/09/08 00:02:25;;;;;;;15.90;9.98;;;16.30;93.10;;;;;;5008500;28;20038;-68
2021/09/08 00:04:50;;;;;;;17.17;10.63;;;16.30;93.00;;;;;;5009658;28;20092;-68
2021/09/08 00:07:16;;;;;;;16.80;10.52;;;16.20;92.80;;;;;;5009530;28;20033;-68
2021/09/08 00:09:41;;;;;;;16.73;10.55;;;16.20;92.80;;;;;;5009425;28;20053;-68
2021/09/08 00:12:07;;;;;;;15.88;9.82;;;16.10;92.80;;;;;;5010095;28;20345;-69
2021/09/08 00:14:33;;;;;;;14.50;10.07;;;16.00;92.70;;;;;;5008928;28;20021;-68
2021/09/08 00:16:59;;;;;;;13.98;9.30;;;16.00;92.70;;;;;;5009512;28;20034;-68
2021/09/08 00:19:25;;;;;;;13.05;9.57;;;16.00;92.90;;;;;;5009698;28;20105;-68
2021/09/08 00:21:51;;;;;;;16.42;10.15;;;15.90;92.80;;;;;;5009608;28;20061;-68
2021/09/08 00:24:16;;;;;;;13.18;9.77;;;15.90;92.70;;;;;;4996035;28;20448;-68
2021/09/08 00:26:42;;;;;;;17.98;10.45;;;15.80;92.70;;;;;;5009880;28;20026;-68
2021/09/08 00:29:08;;;;;;;12.35;9.63;;;15.70;92.70;;;;;;5008947;28;20034;-68
2021/09/08 00:31:33;;;;;;;12.52;9.73;;;15.70;92.90;;;;;;4998527;28;20030;-68
2021/09/08 00:33:59;;;;;;;17.30;10.55;;;15.70;92.90;;;;;;5008905;28;20057;-69
2021/09/08 00:36:24;;;;;;;14.50;11.20;;;15.60;93.10;;;;;;5009714;28;20100;-67
2021/09/08 00:38:50;;;;;;;15.30;10.25;;;15.60;93.10;;;;;;5006793;28;20075;-68
2021/09/08 00:41:16;;;;;;;14.75;9.48;;;15.60;93.20;;;;;;5011286;28;20033;-67
2021/09/08 00:43:41;;;;;;;13.02;10.10;;;15.70;93.20;;;;;;4999041;28;20022;-68
2021/09/08 00:46:07;;;;;;;15.70;9.50;;;15.60;93.10;;;;;;5009870;28;20030;-68
2021/09/08 00:48:32;;;;;;;14.80;9.73;;;15.60;93.00;;;;;;5013820;28;20412;-68
2021/09/08 00:50:58;;;;;;;14.48;9.30;;;15.60;93.00;;;;;;5013029;28;21072;-67
2021/09/08 00:53:24;;;;;;;13.45;10.20;;;15.50;92.90;;;;;;5003593;28;20410;-68
2021/09/08 00:55:51;;;;;;;11.65;8.95;;;15.40;93.00;;;;;;5011522;28;20164;-67
2021/09/08 00:58:16;;;;;;;12.32;9.45;;;15.40;93.00;;;;;;5013153;28;20105;-68
2021/09/08 01:00:43;;;;;;;13.50;10.10;;;15.40;93.00;;;;;;5011402;28;20562;-68
2021/09/08 01:03:09;;;;;;;12.02;9.25;;;15.40;93.10;;;;;;5010465;28;20072;-67
2021/09/08 01:05:35;;;;;;;12.48;8.90;;;15.40;93.10;;;;;;5012560;28;20442;-67
2021/09/08 01:08:00;;;;;;;15.68;10.23;;;15.30;93.10;;;;;;5011637;28;20018;-68
2021/09/08 01:10:27;;;;;;;15.25;10.15;;;15.30;93.20;;;;;;4999394;28;20048;-68
2021/09/08 01:12:52;;;;;;;11.25;9.40;;;15.30;93.20;;;;;;5009327;28;20022;-68
2021/09/08 01:15:19;;;;;;;12.55;9.77;;;15.30;93.20;;;;;;5013418;28;20064;-68
2021/09/08 01:17:45;;;;;;;14.18;8.85;;;15.30;93.40;;;;;;5012727;28;20480;-68
2021/09/08 01:20:15;;;;;;;12.57;8.98;;;15.20;93.30;;;;;;5012839;28;20544;-68
2021/09/08 01:22:51;;;;;;;14.90;9.52;;;15.20;93.20;;;;;;4998026;28;20026;-68
2021/09/08 01:25:23;;;;;;;14.82;8.75;;;15.10;93.20;;;;;;5009769;28;20143;-68
2021/09/08 01:27:50;;;;;;;11.55;8.73;;;15.10;93.30;;;;;;5005415;28;20110;-68
2021/09/08 01:30:17;;;;;;;10.70;8.48;;;15.10;93.30;;;;;;5012122;28;20105;-68
2021/09/08 01:32:43;;;;;;;12.02;8.70;;;15.10;93.30;;;;;;5012156;28;20386;-68
2021/09/08 01:35:09;;;;;;;13.82;9.23;;;15.00;93.20;;;;;;5012370;28;20014;-68
2021/09/08 01:37:35;;;;;;;17.38;9.32;;;15.00;93.30;;;;;;5012570;28;20096;-68
2021/09/08 01:40:00;;;;;;;11.45;9.10;;;15.00;93.40;;;;;;5010416;28;20030;-67
2021/09/08 01:42:26;;;;;;;11.95;9.07;;;15.00;93.40;;;;;;5012092;28;20507;-68
2021/09/08 01:44:51;;;;;;;14.82;8.75;;;15.00;93.40;;;;;;5011920;28;20096;-67
2021/09/08 01:47:17;;;;;;;10.10;8.18;;;14.90;93.50;;;;;;5008323;28;20030;-68
2021/09/08 01:49:43;;;;;;;11.23;8.63;;;14.90;93.40;;;;;;5011623;28;20053;-67
2021/09/08 01:52:08;;;;;;;11.60;8.63;;;14.90;93.40;;;;;;5001219;28;20026;-68
2021/09/08 01:54:34;;;;;;;14.68;9.32;;;14.90;93.40;;;;;;5011074;28;20034;-67
2021/09/08 01:56:59;;;;;;;13.10;9.45;;;14.90;93.40;;;;;;5011741;28;20018;-67
2021/09/08 01:59:25;;;;;;;13.10;8.95;;;14.90;93.40;;;;;;5011587;28;20540;-68
2021/09/08 02:01:50;;;;;;;10.98;8.85;;;14.80;93.50;;;;;;5011743;28;20497;-68
2021/09/08 02:04:16;;;;;;;13.77;9.77;;;14.80;93.50;;;;;;5011664;28;20338;-68
2021/09/08 02:06:49;;;;;;;12.98;9.88;;;14.80;93.60;;;;;;5010966;28;20505;-68
2021/09/08 02:11:43;;;;;;;13.13;9.80;;;14.80;93.70;;;;;;5021063;28;20167;-67
2021/09/08 02:14:09;;;;;;;13.75;9.95;;;14.80;93.70;;;;;;5020611;28;20076;-66
2021/09/08 02:16:34;;;;;;;12.93;9.35;;;14.80;93.80;;;;;;5019131;28;20458;-66
2021/09/08 02:19:00;;;;;;;14.10;9.57;;;14.70;93.70;;;;;;5025146;28;20037;-67
2021/09/08 02:21:26;;;;;;;13.30;8.77;;;14.70;93.70;;;;;;5009025;28;20058;-67
2021/09/08 02:23:51;;;;;;;12.02;9.18;;;14.70;93.80;;;;;;4998558;28;20026;-67
2021/09/08 02:26:17;;;;;;;12.65;9.38;;;14.60;93.70;;;;;;4995548;28;20064;-67
2021/09/08 02:28:43;;;;;;;12.52;9.25;;;14.60;93.60;;;;;;4993449;28;20026;-66
2021/09/08 02:31:09;;;;;;;13.80;9.45;;;14.50;93.70;;;;;;5005322;28;20112;-66
2021/09/08 02:33:35;;;;;;;13.73;10.00;;;14.50;93.90;;;;;;5010332;28;20065;-67
2021/09/08 02:36:02;;;;;;;12.63;8.85;;;14.50;94.00;;;;;;5005184;28;20023;-67
2021/09/08 02:38:29;;;;;;;11.50;8.80;;;14.50;94.00;;;;;;4993138;28;20061;-67
2021/09/08 02:40:54;;;;;;;11.38;9.10;;;14.50;93.80;;;;;;5002346;28;20498;-68
2021/09/08 02:43:20;;;;;;;11.02;8.50;;;14.40;93.70;;;;;;5010154;28;20025;-67
2021/09/08 02:45:45;;;;;;;12.32;9.25;;;14.40;93.70;;;;;;4996598;28;20042;-67
2021/09/08 02:48:11;;;;;;;12.45;8.82;;;14.30;93.80;;;;;;5009696;28;20040;-65
2021/09/08 02:50:37;;;;;;;13.70;8.25;;;14.30;93.90;;;;;;4997406;28;20148;-67
2021/09/08 02:53:03;;;;;;;12.55;8.43;;;14.30;93.80;;;;;;4992097;28;20466;-66
2021/09/08 02:55:29;;;;;;;13.40;9.55;;;14.30;93.80;;;;;;5000978;28;20022;-67
2021/09/08 02:57:54;;;;;;;10.98;8.35;;;14.20;93.80;;;;;;4993427;28;20037;-67
2021/09/08 03:00:20;;;;;;;10.30;8.15;;;14.20;93.90;;;;;;5002415;28;20390;-67
2021/09/08 03:02:46;;;;;;;15.88;9.55;;;14.20;93.80;;;;;;5009339;28;20065;-66
2021/09/08 03:05:11;;;;;;;12.68;9.65;;;14.10;93.90;;;;;;5002666;28;20030;-67
2021/09/08 03:07:37;;;;;;;14.32;9.75;;;14.10;94.00;;;;;;4993704;28;20061;-67
2021/09/08 03:10:04;;;;;;;13.48;9.77;;;14.20;94.20;;;;;;4996370;28;20455;-67
2021/09/08 03:12:29;;;;;;;10.95;8.45;;;14.10;94.20;;;;;;4998494;28;20162;-67
2021/09/08 03:14:55;;;;;;;13.38;8.98;;;14.10;94.10;;;;;;4999670;28;20506;-67
2021/09/08 03:17:20;;;;;;;11.57;8.02;;;14.00;94.00;;;;;;5009616;28;20037;-66
2021/09/08 03:19:46;;;;;;;16.73;11.00;;;14.00;93.90;;;;;;5009415;28;20018;-67
2021/09/08 03:22:11;;;;;;;28.80;15.82;;;13.90;93.90;;;;;;5010971;28;20057;-67
2021/09/08 03:24:37;;;;;;;23.95;14.73;;;13.90;93.90;;;;;;5009769;28;20034;-67
2021/09/08 03:27:04;;;;;;;22.02;13.85;;;13.80;93.90;;;;;;4988683;28;20105;-67
2021/09/08 03:29:29;;;;;;;17.40;11.48;;;13.80;94.00;;;;;;5000989;28;20030;-67
2021/09/08 03:31:55;;;;;;;15.00;10.07;;;13.80;94.10;;;;;;5010042;28;20049;-66
2021/09/08 03:34:20;;;;;;;14.68;10.15;;;13.70;93.90;;;;;;4994539;28;20030;-65
2021/09/08 03:36:46;;;;;;;14.45;9.07;;;13.70;93.90;;;;;;5002425;28;20493;-67
2021/09/08 03:39:12;;;;;;;13.18;9.57;;;13.60;94.00;;;;;;4991683;28;20433;-67
2021/09/08 03:41:37;;;;;;;13.25;10.10;;;13.70;94.00;;;;;;4998206;28;20037;-66
2021/09/08 03:44:03;;;;;;;14.70;10.10;;;13.60;94.00;;;;;;4998246;28;20037;-65
2021/09/08 03:46:28;;;;;;;16.35;10.27;;;13.60;94.10;;;;;;4992765;28;20116;-67
2021/09/08 03:48:54;;;;;;;16.05;10.20;;;13.60;94.10;;;;;;5004738;28;20026;-67
2021/09/08 03:51:19;;;;;;;13.27;9.93;;;13.60;94.10;;;;;;5001686;28;20393;-67
2021/09/08 03:53:45;;;;;;;15.02;11.10;;;13.60;94.00;;;;;;4990658;28;20390;-65
2021/09/08 03:56:11;;;;;;;16.92;11.40;;;13.50;94.00;;;;;;5007288;28;20034;-67
2021/09/08 03:58:37;;;;;;;15.40;11.23;;;13.50;94.00;;;;;;5008819;28;20231;-67
2021/09/08 04:01:03;;;;;;;17.70;10.88;;;13.50;94.10;;;;;;4998007;28;20081;-67
2021/09/08 04:03:29;;;;;;;15.60;11.25;;;13.40;94.10;;;;;;4994629;28;20397;-66
2021/09/08 04:05:54;;;;;;;18.70;11.68;;;13.50;94.10;;;;;;4991642;28;20037;-68
2021/09/08 04:08:20;;;;;;;14.45;11.32;;;13.40;94.10;;;;;;4993802;28;20113;-67
2021/09/08 04:10:45;;;;;;;20.30;12.18;;;13.40;94.10;;;;;;4998279;28;20478;-66
2021/09/08 04:13:11;;;;;;;16.42;11.45;;;13.30;94.20;;;;;;5007568;28;20026;-66
2021/09/08 04:15:37;;;;;;;18.67;12.70;;;13.30;94.20;;;;;;5005720;28;20032;-68
2021/09/08 04:18:02;;;;;;;18.35;12.82;;;13.30;94.30;;;;;;5006787;28;20076;-67
2021/09/08 04:20:28;;;;;;;19.83;13.27;;;13.30;94.30;;;;;;5004949;28;20033;-66
2021/09/08 04:22:54;;;;;;;16.58;11.32;;;13.30;94.20;;;;;;5005250;28;20026;-66
2021/09/08 04:25:19;;;;;;;17.25;12.32;;;13.30;94.20;;;;;;4998557;28;20030;-68
2021/09/08 04:27:45;;;;;;;16.08;11.00;;;13.30;94.20;;;;;;5006273;28;20037;-67
2021/09/08 04:30:11;;;;;;;14.85;10.38;;;13.20;94.30;;;;;;5009924;28;20037;-66
2021/09/08 04:32:36;;;;;;;16.45;10.75;;;13.20;94.30;;;;;;5009456;28;20745;-67
2021/09/08 04:35:02;;;;;;;13.52;10.07;;;13.20;94.30;;;;;;5016272;28;20018;-64
2021/09/08 04:37:28;;;;;;;13.65;10.35;;;13.20;94.40;;;;;;5010592;28;20042;-65
2021/09/08 04:39:54;;;;;;;15.07;10.63;;;13.20;94.50;;;;;;4997776;28;20037;-67
2021/09/08 04:42:19;;;;;;;14.30;10.10;;;13.30;94.50;;;;;;5001176;28;20036;-67
2021/09/08 04:44:45;;;;;;;14.00;9.93;;;13.30;94.50;;;;;;5011997;28;20482;-66
2021/09/08 04:47:10;;;;;;;14.18;10.23;;;13.30;94.40;;;;;;5005000;28;20378;-65
2021/09/08 04:49:36;;;;;;;15.80;9.93;;;13.30;94.30;;;;;;5015612;28;20084;-67
2021/09/08 04:52:02;;;;;;;12.77;9.82;;;13.20;94.30;;;;;;5012647;28;20018;-66
2021/09/08 04:54:27;;;;;;;14.15;9.93;;;13.10;94.20;;;;;;5014123;28;20105;-66
2021/09/08 04:56:53;;;;;;;15.18;10.00;;;13.10;94.20;;;;;;5004978;28;20598;-64
2021/09/08 04:59:18;;;;;;;13.93;10.10;;;13.10;94.20;;;;;;4998130;28;20049;-66
2021/09/08 05:01:44;;;;;;;15.57;9.73;;;13.00;94.20;;;;;;5008503;28;20033;-67
2021/09/08 05:04:10;;;;;;;14.35;10.20;;;13.00;94.20;;;;;;5013971;28;20024;-66
2021/09/08 05:06:35;;;;;;;15.40;9.98;;;12.90;94.30;;;;;;4998770;28;20097;-66
2021/09/08 05:09:01;;;;;;;14.43;9.95;;;12.90;94.30;;;;;;4997534;28;20038;-67
2021/09/08 05:11:26;;;;;;;19.00;10.38;;;12.90;94.40;;;;;;5009690;28;20033;-66
2021/09/08 05:13:52;;;;;;;15.25;10.35;;;12.90;94.40;;;;;;4998790;28;20105;-66
2021/09/08 05:16:17;;;;;;;12.57;9.75;;;12.90;94.40;;;;;;5008032;28;20029;-66
2021/09/08 05:18:43;;;;;;;13.02;10.10;;;12.90;94.40;;;;;;5011055;28;20029;-67
2021/09/08 05:21:08;;;;;;;14.68;10.48;;;12.90;94.50;;;;;;5014504;28;20113;-67
2021/09/08 05:23:34;;;;;;;13.90;10.75;;;12.90;94.50;;;;;;5011268;28;20029;-67
2021/09/08 05:26:00;;;;;;;17.48;10.93;;;12.80;94.50;;;;;;5004191;28;20022;-65
2021/09/08 05:28:26;;;;;;;14.13;10.75;;;12.90;94.60;;;;;;5002252;28;20437;-67
2021/09/08 05:30:52;;;;;;;14.75;10.98;;;12.90;94.90;;;;;;5009810;28;20401;-67
2021/09/08 05:33:17;;;;;;;15.73;11.50;;;13.00;94.80;;;;;;5010800;28;20034;-66
2021/09/08 05:35:43;;;;;;;22.05;11.93;;;13.10;94.80;;;;;;5012690;28;20475;-67
2021/09/08 05:38:08;;;;;;;58.85;37.88;;;13.10;94.80;;;;;;5013262;28;20105;-67
2021/09/08 05:40:34;;;;;;;21.65;15.85;;;13.20;94.90;;;;;;5007971;28;20029;-67
2021/09/08 05:43:01;;;;;;;16.48;12.48;;;13.20;94.90;;;;;;5001372;28;20126;-67
2021/09/08 05:45:27;;;;;;;25.63;13.68;;;13.30;94.90;;;;;;5002871;28;20091;-68
2021/09/08 05:47:53;;;;;;;20.58;13.57;;;13.30;94.90;;;;;;4995929;28;20165;-67
2021/09/08 05:50:19;;;;;;;21.17;12.15;;;13.30;95.00;;;;;;5008750;28;20450;-67
2021/09/08 05:52:45;;;;;;;15.23;11.35;;;13.40;95.00;;;;;;5002523;28;20045;-67
2021/09/08 05:55:10;;;;;;;19.05;13.35;;;13.40;95.00;;;;;;5012071;28;20473;-65
2021/09/08 05:57:36;;;;;;;22.60;13.63;;;13.40;95.10;;;;;;5011592;28;20088;-68
2021/09/08 06:00:03;;;;;;;20.98;14.02;;;13.40;95.10;;;;;;4996595;28;20022;-66
2021/09/08 06:02:29;;;;;;;19.52;12.90;;;13.50;95.10;;;;;;5000569;28;20030;-65
2021/09/08 06:04:54;;;;;;;26.40;18.33;;;13.50;95.20;;;;;;4998348;28;20367;-65
2021/09/08 06:07:20;;;;;;;18.25;12.80;;;13.50;95.10;;;;;;5002504;28;20080;-68
2021/09/08 06:09:46;;;;;;;21.70;13.80;;;13.50;95.30;;;;;;5002414;28;20044;-67
2021/09/08 06:12:11;;;;;;;26.27;14.15;;;13.60;95.20;;;;;;5001288;28;20029;-68
2021/09/08 06:14:37;;;;;;;18.85;13.57;;;13.60;95.20;;;;;;5005461;28;20100;-66
2021/09/08 06:17:04;;;;;;;18.48;13.27;;;13.60;95.10;;;;;;5004120;28;20425;-67
2021/09/08 06:19:30;;;;;;;20.77;14.00;;;13.70;95.20;;;;;;5010133;28;20030;-67
2021/09/08 06:21:55;;;;;;;21.90;13.90;;;13.70;95.20;;;;;;5007923;28;20022;-68
2021/09/08 06:24:21;;;;;;;21.70;13.95;;;13.70;95.10;;;;;;4999708;28;20470;-68
2021/09/08 06:26:47;;;;;;;23.67;14.45;;;13.80;95.20;;;;;;5005898;28;20061;-68
2021/09/08 06:29:12;;;;;;;20.42;14.48;;;13.80;95.20;;;;;;5006973;28;20027;-67
2021/09/08 06:31:38;;;;;;;19.30;13.25;;;13.90;95.20;;;;;;4997648;28;20033;-67
2021/09/08 06:34:03;;;;;;;17.13;11.93;;;14.00;95.20;;;;;;4992511;28;20022;-68
2021/09/08 06:36:29;;;;;;;22.17;13.88;;;14.00;95.30;;;;;;5009633;28;20026;-68
2021/09/08 06:38:55;;;;;;;19.38;13.75;;;14.10;95.30;;;;;;5010735;28;20130;-66
2021/09/08 06:41:20;;;;;;;20.40;13.05;;;14.20;95.30;;;;;;4994346;28;20504;-68
2021/09/08 06:43:49;;;;;;;29.77;14.50;;;14.20;95.30;;;;;;5008799;28;20375;-67
2021/09/08 06:46:15;;;;;;;23.02;14.52;;;14.30;95.30;;;;;;4999225;28;20085;-68
2021/09/08 06:48:41;;;;;;;19.58;13.00;;;14.30;95.30;;;;;;5009626;28;20109;-69
2021/09/08 06:51:07;;;;;;;20.75;12.90;;;14.40;95.30;;;;;;5007190;28;20033;-67
2021/09/08 06:53:33;;;;;;;17.55;12.73;;;14.40;95.20;;;;;;5008733;28;20033;-68
2021/09/08 06:55:58;;;;;;;17.38;12.85;;;14.50;95.10;;;;;;4997861;28;20381;-68
2021/09/08 06:58:24;;;;;;;18.27;12.35;;;14.50;95.10;;;;;;5000817;28;20036;-66
2021/09/08 07:00:50;;;;;;;19.05;12.75;;;14.60;95.10;;;;;;5001216;28;20065;-68
2021/09/08 07:03:15;;;;;;;16.92;12.15;;;14.70;95.10;;;;;;5002593;28;20077;-68
2021/09/08 07:05:41;;;;;;;17.58;12.38;;;14.70;95.00;;;;;;5007827;28;20026;-68
2021/09/08 07:08:09;;;;;;;16.00;12.48;;;14.80;94.90;;;;;;5003115;28;20030;-66
2021/09/08 07:10:36;;;;;;;18.10;12.15;;;14.90;94.90;;;;;;4996218;28;20545;-66
2021/09/08 07:13:01;;;;;;;20.80;12.48;;;15.00;94.90;;;;;;4999806;28;20038;-67
2021/09/08 07:15:27;;;;;;;18.35;12.25;;;15.10;94.80;;;;;;4998357;28;20125;-65
2021/09/08 07:17:52;;;;;;;20.02;11.93;;;15.20;94.80;;;;;;5001410;28;20112;-64
2021/09/08 07:20:18;;;;;;;16.23;12.02;;;15.30;94.70;;;;;;4999948;28;20030;-67
2021/09/08 07:22:44;;;;;;;18.48;12.30;;;15.50;94.70;;;;;;4999172;28;20026;-66
2021/09/08 07:25:10;;;;;;;18.25;11.27;;;15.80;94.50;;;;;;4996117;28;20101;-66
2021/09/08 07:27:35;;;;;;;20.35;11.40;;;16.30;94.10;;;;;;5009286;28;20463;-66
2021/09/08 07:30:02;;;;;;;13.77;10.25;;;16.90;93.70;;;;;;5008353;28;20040;-67
2021/09/08 07:32:28;;;;;;;15.93;9.82;;;17.60;93.10;;;;;;5000158;28;20033;-65
2021/09/08 07:34:58;;;;;;;15.20;9.15;;;18.10;92.40;;;;;;4998046;28;20467;-69
2021/09/08 07:37:24;;;;;;;15.30;9.90;;;18.50;91.90;;;;;;4996863;28;20439;-66
2021/09/08 07:39:49;;;;;;;14.65;9.13;;;18.30;91.90;;;;;;4992013;28;20034;-66
2021/09/08 07:42:16;;;;;;;13.43;9.48;;;18.40;91.70;;;;;;4998912;28;20060;-66
2021/09/08 07:44:43;;;;;;;14.70;10.20;;;18.70;91.50;;;;;;5009167;28;20022;-66
2021/09/08 07:47:09;;;;;;;13.13;9.07;;;19.20;91.00;;;;;;5000267;28;20112;-65
2021/09/08 07:49:35;;;;;;;17.33;9.55;;;19.70;90.40;;;;;;5007937;28;20026;-66
2021/09/08 07:52:00;;;;;;;13.18;8.23;;;20.20;89.70;;;;;;4997297;28;20037;-65
2021/09/08 07:54:26;;;;;;;15.48;9.30;;;20.70;88.30;;;;;;4990798;28;20389;-65
2021/09/08 07:56:53;;;;;;;12.60;8.90;;;21.30;87.20;;;;;;4995261;28;20554;-66
2021/09/08 07:59:19;;;;;;;13.18;8.30;;;21.70;86.00;;;;;;4999259;28;20101;-66
2021/09/08 08:01:44;;;;;;;15.20;8.50;;;22.20;84.80;;;;;;4997655;28;20105;-66
2021/09/08 08:04:10;;;;;;;12.02;8.85;;;22.60;84.00;;;;;;5001846;28;20054;-66
2021/09/08 08:06:37;;;;;;;14.68;9.40;;;22.90;83.10;;;;;;5003838;28;20025;-66
2021/09/08 08:11:32;;;;;;;11.48;8.63;;;23.50;80.90;;;;;;5043795;28;20708;-67
2021/09/08 08:13:58;;;;;;;16.63;8.93;;;23.80;80.20;;;;;;5041245;28;20105;-67
2021/09/08 08:16:23;;;;;;;13.93;9.20;;;24.20;79.50;;;;;;5047925;28;20078;-68
2021/09/08 08:18:49;;;;;;;15.40;8.80;;;24.50;79.00;;;;;;5044978;28;20056;-67
2021/09/08 08:21:14;;;;;;;16.80;8.50;;;24.70;77.90;;;;;;5025789;28;20035;-68
2021/09/08 08:23:40;;;;;;;14.35;8.18;;;24.80;77.60;;;;;;5028552;28;20461;-67
2021/09/08 08:26:06;;;;;;;14.70;8.57;;;24.80;77.40;;;;;;5030419;28;20083;-67
2021/09/08 08:28:31;;;;;;;11.23;7.65;;;24.80;77.30;;;;;;5011880;28;20029;-68
2021/09/08 08:30:59;;;;;;;13.00;7.90;;;24.90;77.70;;;;;;5011448;28;20025;-68
2021/09/08 08:33:28;;;;;;;13.30;8.88;;;24.90;77.10;;;;;;5028715;28;20017;-68
2021/09/08 08:35:54;;;;;;;15.00;8.30;;;24.80;77.50;;;;;;5028275;28;20036;-68
2021/09/08 08:38:20;;;;;;;12.05;8.10;;;24.70;78.10;;;;;;5029476;28;20025;-68
2021/09/08 08:40:45;;;;;;;11.63;7.95;;;24.70;78.30;;;;;;5017451;28;20029;-68
2021/09/08 08:43:11;;;;;;;11.95;7.93;;;24.70;78.80;;;;;;5019111;28;20385;-68
2021/09/08 08:45:37;;;;;;;13.43;8.55;;;24.70;78.80;;;;;;5019416;28;20521;-68
2021/09/08 08:48:03;;;;;;;12.23;8.50;;;24.70;79.00;;;;;;5026936;28;20100;-68
2021/09/08 08:50:29;;;;;;;12.70;6.90;;;24.70;78.90;;;;;;5030047;28;20109;-68
2021/09/08 08:52:57;;;;;;;14.60;7.65;;;24.70;78.40;;;;;;5028412;28;20033;-68
2021/09/08 08:55:24;;;;;;;13.65;7.28;;;24.80;77.50;;;;;;5017098;28;20022;-68
2021/09/08 08:57:49;;;;;;;10.05;6.80;;;24.70;77.60;;;;;;5021306;28;20564;-68
2021/09/08 09:00:20;;;;;;;14.88;7.38;;;24.80;77.10;;;;;;4992673;28;20034;-67
2021/09/08 09:02:48;;;;;;;10.65;7.43;;;24.80;76.70;;;;;;5030509;28;20022;-67
2021/09/08 09:05:39;;;;;;;10.32;7.43;;;24.80;77.10;;;;;;5033695;28;20112;-67
2021/09/08 09:08:10;;;;;;;10.02;7.75;;;24.80;76.90;;;;;;5004425;28;20034;-68
2021/09/08 09:10:37;;;;;;;11.83;7.80;;;24.90;76.70;;;;;;5034057;28;20037;-67
2021/09/08 09:13:03;;;;;;;11.60;8.23;;;25.00;77.60;;;;;;5031759;28;20086;-68
2021/09/08 09:15:29;;;;;;;12.40;7.57;;;25.00;76.90;;;;;;5032061;28;20536;-68
2021/09/08 09:17:55;;;;;;;8.48;6.95;;;25.10;76.70;;;;;;5026661;28;20018;-68
2021/09/08 09:20:25;;;;;;;9.75;6.88;;;25.00;76.30;;;;;;5033409;28;20531;-68
2021/09/08 09:22:57;;;;;;;8.75;7.10;;;25.00;75.30;;;;;;5030612;28;20072;-67
2021/09/08 09:25:26;;;;;;;8.15;6.15;;;25.10;75.30;;;;;;5032875;28;20024;-67
2021/09/08 09:27:55;;;;;;;9.77;7.18;;;25.10;75.20;;;;;;5032592;28;20089;-68
2021/09/08 09:30:23;;;;;;;9.02;6.60;;;25.10;75.30;;;;;;5032989;28;20110;-68
2021/09/08 09:32:50;;;;;;;10.93;6.68;;;25.10;75.00;;;;;;5030318;28;20108;-67
2021/09/08 09:35:21;;;;;;;8.95;7.10;;;25.20;74.80;;;;;;5033270;28;20029;-67
2021/09/08 09:37:59;;;;;;;10.20;6.85;;;25.20;73.80;;;;;;5031294;28;20477;-67
2021/09/08 09:40:30;;;;;;;10.13;6.88;;;25.20;74.10;;;;;;5009647;28;20044;-68
2021/09/08 09:43:05;;;;;;;10.52;6.78;;;25.20;74.80;;;;;;5022461;28;20022;-68
2021/09/08 09:45:40;;;;;;;8.27;6.43;;;25.20;74.30;;;;;;5024066;28;20115;-67
2021/09/08 09:48:07;;;;;;;9.00;6.00;;;25.30;73.90;;;;;;5026077;28;20028;-67
2021/09/08 09:50:33;;;;;;;9.43;6.15;;;25.20;73.80;;;;;;5004365;28;20548;-68
2021/09/08 09:53:00;;;;;;;8.93;6.05;;;25.30;73.50;;;;;;5021973;28;20112;-67
2021/09/08 09:55:27;;;;;;;10.57;5.88;;;25.40;73.20;;;;;;5013282;28;20444;-67
2021/09/08 09:57:54;;;;;;;7.00;5.57;;;25.40;72.40;;;;;;5031209;28;20049;-67
2021/09/08 10:00:20;;;;;;;11.45;6.00;;;25.40;73.00;;;;;;5032677;28;20024;-67
2021/09/08 10:02:46;;;;;;;10.63;6.30;;;25.50;73.00;;;;;;5013040;28;20095;-68
2021/09/08 10:05:14;;;;;;;12.38;6.10;;;25.60;73.00;;;;;;5032838;28;20013;-67
2021/09/08 10:07:40;;;;;;;8.95;5.93;;;25.70;72.10;;;;;;5031416;28;20052;-67
2021/09/08 10:10:16;;;;;;;8.77;5.70;;;25.70;71.80;;;;;;5030651;28;20069;-67
2021/09/08 10:13:05;;;;;;;7.20;5.65;;;25.80;69.70;;;;;;5030782;28;20104;-68
2021/09/08 10:15:31;;;;;;;8.77;6.10;;;25.80;69.60;;;;;;5022239;28;20038;-67
2021/09/08 10:18:09;;;;;;;8.45;5.53;;;25.80;70.20;;;;;;5029322;28;20037;-67
2021/09/08 10:20:34;;;;;;;13.65;6.40;;;25.80;69.10;;;;;;5030785;28;20396;-67
2021/09/08 10:23:08;;;;;;;12.90;5.47;;;25.80;69.60;;;;;;5031983;28;20096;-67
2021/09/08 10:25:34;;;;;;;7.38;5.85;;;25.80;68.60;;;;;;5026798;28;20030;-67
2021/09/08 10:28:00;;;;;;;11.23;5.68;;;25.80;69.60;;;;;;5025640;28;20071;-68
2021/09/08 10:30:26;;;;;;;9.40;5.78;;;25.80;69.50;;;;;;5030278;28;20036;-67
2021/09/08 10:32:53;;;;;;;6.68;5.57;;;25.90;69.20;;;;;;5031514;28;20129;-67
2021/09/08 10:35:20;;;;;;;7.70;5.25;;;26.00;68.50;;;;;;5031964;28;20053;-67
2021/09/08 10:37:47;;;;;;;9.02;5.47;;;26.10;67.60;;;;;;5030546;28;20035;-67
2021/09/08 10:40:22;;;;;;;7.82;4.90;;;26.10;67.60;;;;;;5028544;28;20136;-67
2021/09/08 10:43:00;;;;;;;6.05;4.88;;;26.10;66.40;;;;;;5025017;28;20017;-67
2021/09/08 10:45:28;;;;;;;11.05;5.57;;;26.10;65.70;;;;;;5031177;28;20442;-67
2021/09/08 10:47:56;;;;;;;10.25;6.28;;;26.10;67.40;;;;;;5029868;28;20033;-67
2021/09/08 10:50:45;;;;;;;10.90;5.20;;;26.10;68.20;;;;;;5030202;28;20401;-67
2021/09/08 10:53:19;;;;;;;6.32;5.35;;;26.10;67.80;;;;;;5031068;28;20083;-67
2021/09/08 10:55:46;;;;;;;8.63;5.63;;;26.20;68.10;;;;;;5027743;28;20752;-67
2021/09/08 10:58:12;;;;;;;6.57;5.10;;;26.30;67.70;;;;;;5030215;28;20030;-67
2021/09/08 11:00:40;;;;;;;6.82;5.47;;;26.40;66.90;;;;;;5031655;28;20071;-67
2021/09/08 11:03:22;;;;;;;7.55;5.30;;;26.40;66.20;;;;;;5030189;28;20030;-67
2021/09/08 11:05:52;;;;;;;6.57;5.13;;;26.40;65.60;;;;;;5031561;28;20060;-67
2021/09/08 11:08:21;;;;;;;5.95;5.05;;;26.40;66.30;;;;;;5030783;28;20485;-67
2021/09/08 11:10:47;;;;;;;11.05;5.43;;;26.40;65.30;;;;;;5012528;28;20073;-67
2021/09/08 11:13:24;;;;;;;8.05;5.35;;;26.40;65.80;;;;;;5030091;28;20488;-67
2021/09/08 11:15:50;;;;;;;8.20;5.10;;;26.40;64.90;;;;;;5031642;28;20543;-67
2021/09/08 11:18:16;;;;;;;5.80;4.80;;;26.40;65.60;;;;;;5029790;28;20033;-68
2021/09/08 11:20:42;;;;;;;6.60;4.90;;;26.40;65.60;;;;;;5011838;28;20037;-67
2021/09/08 11:23:15;;;;;;;5.28;4.50;;;26.40;64.50;;;;;;5029114;28;20022;-67
2021/09/08 11:25:44;;;;;;;6.05;4.60;;;26.30;63.50;;;;;;5010708;28;20105;-67
2021/09/08 11:28:12;;;;;;;11.38;4.70;;;26.30;64.00;;;;;;5026789;28;20017;-66
2021/09/08 11:30:43;;;;;;;5.32;4.80;;;26.30;64.00;;;;;;5031508;28;20022;-68
2021/09/08 11:33:14;;;;;;;6.85;4.97;;;26.30;63.90;;;;;;5029737;28;20037;-67
2021/09/08 11:35:43;;;;;;;7.80;4.70;;;26.30;63.80;;;;;;5030258;28;20048;-67
2021/09/08 11:38:15;;;;;;;13.43;5.35;;;26.30;63.30;;;;;;5012087;28;20025;-67
2021/09/08 11:40:50;;;;;;;7.10;4.78;;;26.30;63.50;;;;;;5027393;28;20026;-67
2021/09/08 11:43:35;;;;;;;9.45;5.00;;;26.30;64.00;;;;;;5001441;28;20045;-67
2021/09/08 11:46:31;;;;;;;9.13;4.80;;;26.30;64.10;;;;;;5010194;28;20029;-67
2021/09/08 11:49:09;;;;;;;6.05;4.80;;;26.40;63.50;;;;;;5017526;28;20417;-67
2021/09/08 11:51:36;;;;;;;6.65;5.10;;;26.40;63.70;;;;;;5030695;28;20037;-67
2021/09/08 11:54:04;;;;;;;6.18;4.60;;;26.30;63.70;;;;;;5023291;28;20104;-67
2021/09/08 11:56:31;;;;;;;9.88;5.03;;;26.30;63.90;;;;;;5025997;28;20048;-67
2021/09/08 11:59:02;;;;;;;9.40;4.80;;;26.30;63.30;;;;;;5029559;28;20068;-67
2021/09/08 12:01:37;;;;;;;7.65;5.15;;;26.30;63.10;;;;;;5030985;28;20029;-67
2021/09/08 12:04:04;;;;;;;7.03;5.25;;;26.30;62.90;;;;;;5028990;28;20040;-67
2021/09/08 12:06:50;;;;;;;7.00;5.25;;;26.30;63.50;;;;;;5028947;28;20018;-67
2021/09/08 12:09:16;;;;;;;8.75;4.90;;;26.30;63.50;;;;;;5016339;28;20451;-67
2021/09/08 12:11:41;;;;;;;8.60;4.97;;;26.30;63.80;;;;;;5029697;28;20033;-67
2021/09/08 12:14:28;;;;;;;8.30;4.75;;;26.30;64.00;;;;;;5027264;28;20079;-67
2021/09/08 12:16:56;;;;;;;8.68;4.70;;;26.20;63.50;;;;;;5011376;28;20079;-67
2021/09/08 12:19:32;;;;;;;7.47;4.43;;;26.30;63.10;;;;;;5024514;28;20037;-67
2021/09/08 12:22:11;;;;;;;5.72;4.47;;;26.30;62.60;;;;;;5011756;28;20026;-67
2021/09/08 12:24:43;;;;;;;8.10;5.03;;;26.30;62.20;;;;;;5027370;28;20540;-67
2021/09/08 12:27:41;;;;;;;5.63;4.93;;;26.40;62.70;;;;;;5023713;28;20083;-67
2021/09/08 12:30:09;;;;;;;8.85;4.97;;;26.40;63.20;;;;;;5003832;28;20400;-67
2021/09/08 12:32:47;;;;;;;6.35;4.22;;;26.40;64.00;;;;;;5028363;28;20547;-68
2021/09/08 12:35:36;;;;;;;7.25;5.03;;;26.50;62.40;;;;;;5013198;28;20445;-67
2021/09/08 12:38:19;;;;;;;7.68;4.82;;;26.50;62.00;;;;;;4997367;28;20069;-67
2021/09/08 12:41:14;;;;;;;11.52;5.88;;;26.50;62.80;;;;;;5034646;28;20036;-67
2021/09/08 12:43:44;;;;;;;8.02;5.13;;;26.40;62.50;;;;;;5030570;28;20022;-67